Island Falls, Canada
Current Conditions -  °F | °C
As of 7:00 AM on Thursday 18 Dec 2014 (Local Time) from CYFO Reporting Station
Light Snow Light Snow  
Wind Chill:   Ceiling: 700
Heat Index: 14°   Visibility: 10mi
Dew Point: 10°   Wind: 9mph
Humidity: 86%   Direction: 220°SW
Pressure: 30.01"   Gusts: NA
Location:  55.53°N, 102.33°W
Report Text: CYFO 181300Z 22008KT 10SM -SN OVC007 M10/M12 A3001 RMK SC8 SLP186
Loading
Personal Weather Stations






























Interactive Weather Map New forecast layout! Learn more

10-Day Weather Forecast

Advertisements
Track Severe Weather on mobile